Portada
METAR-TAF:

METAR-TAF

Aeroports :

Locarno, Suïssa

latitud: 46-09-55N, longitud: 8-52-40E, altitud: 198 m

Observació

L'informe es va fer fa 35 minuts, a les 18:50 UTC
Vent 1 kt amb direcció variable
Temperatura 12°C
Humitat 50%
Pressió 1017 hPa
Visibilitat 10 km o més
Cel ennuvolat a una alçada de 10000 ft

METAR: LSZL 051850Z AUTO VRB01KT 9999NDV BKN100 12/02 Q1017 RMK

Hora: 20:25 (19:25 UTC)

Pronòstic

L'informe es va fer fa 2 hores i 0 minuts, a les 17:25 UTC
Pronòstic vàlid del 05 a les 18 UTC al 06 a les 03 UTC
Vent 2 kt amb direcció variable
Visibilitat 10 km o més
Cel ennuvolat a una alçada de 9000 ft
Probabilitat 30% :
Temporalment
l' 06 a les 00 UTC al 06 a les 03 UTC
pluja

TAF: LSZL 051725Z 0518/0603 VRB02KT 9999 BKN090 PROB30 TEMPO 0600/0603 RA

Observacions i pronòstics meteorològics de més de 4000 aeroports (METAR i TAF).

Les estacions disponibles són els punts grocs i vermells al mapa.

Posi el ratolí al punt desitjat per veure el nom de l'estació.

Feu clic per veure les observacions i els pronòstics meteorològics.

Per canviar el mapa: feu clic els botons verds amb una creu de color negre per apropar; al botó verd amb un guió per allunyar la imatge; o en les fletxes verdes per a mapes adjacents.


METAR-TAF: